Airfield :
LOGIN :

Register | Disclaimer

   EN    FR    IT 

 










Legend :    VFR   Marginal VFR   IFR   Intensive IFR   Very Intensive IFR
Visi :
Ceiling :
>= 8 km
>= 3000ft
5 to 8 km
1000 to 3000 ft
1500m to 5 km
500 to 1000 ft
800 to 1500m
200 to 500 ft
< 800m
< 200 ft
Symbols :   Thunderstorms  Fog  Heavy snow  Heavy precipitations  Wind > 20 kt
SIGMETs :     Misc.  Thunderstorms  Icing  Turbulence  Mountain Waves  Volcanic Ashes







- Airport Elevation : 14 ft
- IATA code : BRE


EDDW - Bremen Neuenland

CURRENT METAR :
  • 112220Z 31005KT 9999 BKN030 03/01 Q1023

EXPIRED METARs :
  • 112150Z 31005KT 9999 BKN030 03/01 Q1023
  • 112120Z 31005KT 9999 BKN030 03/01 Q1023
  • 112050Z 30006KT 9999 FEW028 02/00 Q1023 NOSIG
  • 112020Z 30005KT 9999 BKN028 03/01 Q1023 NOSIG
  • 111950Z 30006KT 9999 BKN025 03/01 Q1023 NOSIG

TAF TAF EDDW
Valid from the 11 at 18:00 until the 12 at 18:00 UTC


111700Z 1118/1218 34005KT 9999 BKN035
PROB30
TEMPO 1203/1208 BKN012
BECMG 1207/1209 04006KT
PROB30
TEMPO 1212/1218 BKN012
No reported NOTAMs for that airfield.



MET'MAP, your aeronautical weather chart ! - Copyright ORBIFLY December 2007 - Disclaimer

ORBIFLY MET'MAP TEAM :

Programming & Development : Alexandra Zaïnal
Concept & Development : Baudouin d'Aumeries
Co-Development & Prog : Marc-Olivier Méhu
Technical & hardware support : Manuel Goepfert

Contact : metmap@orbifly.com




SOURCES & CREDITS :

   NOAA